createdAt,value
2017-08-10T00:00:01.744Z,5.13
2017-08-10T00:02:28.092Z,5.97
2017-08-10T00:04:54.467Z,5.07
2017-08-10T00:07:20.863Z,5.40
2017-08-10T00:09:47.267Z,5.40
2017-08-10T00:12:13.641Z,5.07
2017-08-10T00:14:40.038Z,5.30
2017-08-10T00:17:06.455Z,5.43
2017-08-10T00:19:32.830Z,5.47
2017-08-10T00:21:59.264Z,4.80
2017-08-10T00:24:25.634Z,5.20
2017-08-10T00:26:52.004Z,4.90
2017-08-10T00:29:18.346Z,5.93
2017-08-10T00:31:44.720Z,5.70
2017-08-10T00:34:11.174Z,4.60
2017-08-10T00:36:37.532Z,5.20
2017-08-10T00:39:03.948Z,5.40
2017-08-10T00:41:30.312Z,5.20
2017-08-10T00:43:56.634Z,5.17
2017-08-10T00:46:22.969Z,5.30
2017-08-10T00:48:49.333Z,5.57
2017-08-10T00:51:15.731Z,6.00
2017-08-10T00:53:42.076Z,5.37
2017-08-10T00:56:08.435Z,5.87
2017-08-10T00:58:34.823Z,5.80
2017-08-10T01:01:01.197Z,5.80
2017-08-10T01:03:27.558Z,5.87
2017-08-10T01:05:53.886Z,5.43
2017-08-10T01:08:20.230Z,5.30
2017-08-10T01:10:46.611Z,5.50
2017-08-10T01:13:12.990Z,5.63
2017-08-10T01:15:39.346Z,6.50
2017-08-10T01:18:05.720Z,6.40
2017-08-10T01:20:32.087Z,6.53
2017-08-10T01:22:58.448Z,6.10
2017-08-10T01:25:24.832Z,6.10
2017-08-10T01:27:51.192Z,6.23
2017-08-10T01:30:17.588Z,6.40
2017-08-10T01:32:43.926Z,6.80
2017-08-10T01:35:10.293Z,7.10
2017-08-10T01:37:36.660Z,6.17
2017-08-10T01:40:03.092Z,7.03
2017-08-10T01:42:29.487Z,7.13
2017-08-10T01:44:55.875Z,7.30
2017-08-10T01:47:22.268Z,7.00
2017-08-10T01:49:48.651Z,6.77
2017-08-10T01:52:15.023Z,6.60
2017-08-10T01:54:41.388Z,7.77
2017-08-10T01:57:07.764Z,6.93
2017-08-10T01:59:34.135Z,7.50
2017-08-10T02:02:00.562Z,6.67
2017-08-10T02:04:26.976Z,6.63
2017-08-10T02:06:53.294Z,6.20
2017-08-10T02:09:19.645Z,7.17
2017-08-10T02:11:46.037Z,7.40
2017-08-10T02:14:12.435Z,6.93
2017-08-10T02:16:38.776Z,7.57
2017-08-10T02:19:05.127Z,7.17
2017-08-10T02:21:31.481Z,7.47
2017-08-10T02:23:57.810Z,8.00
2017-08-10T02:26:24.167Z,6.90
2017-08-10T02:28:50.528Z,7.50
2017-08-10T02:31:16.902Z,7.20
2017-08-10T02:33:43.283Z,8.43
2017-08-10T02:36:09.645Z,8.00
2017-08-10T02:38:36.108Z,8.17
2017-08-10T02:41:02.462Z,7.23
2017-08-10T02:43:29.201Z,7.60
2017-08-10T02:45:55.581Z,7.53
2017-08-10T02:48:21.933Z,6.90
2017-08-10T02:50:48.291Z,7.13
2017-08-10T02:53:14.696Z,7.53
2017-08-10T02:55:41.055Z,6.93
2017-08-10T02:58:07.690Z,5.50
2017-08-10T03:00:34.044Z,7.20
2017-08-10T03:03:00.435Z,6.80
2017-08-10T03:05:26.811Z,8.53
2017-08-10T03:07:53.177Z,8.40
2017-08-10T03:10:19.546Z,8.00
2017-08-10T03:12:45.932Z,8.07
2017-08-10T03:15:12.284Z,9.67
2017-08-10T03:17:38.634Z,8.30
2017-08-10T03:20:04.982Z,9.10
2017-08-10T03:22:31.412Z,8.73
2017-08-10T03:24:57.771Z,8.00
2017-08-10T03:27:24.121Z,9.50
2017-08-10T03:29:50.484Z,8.60
2017-08-10T03:32:16.831Z,10.40
2017-08-10T03:34:43.176Z,8.87
2017-08-10T03:37:09.567Z,10.03
2017-08-10T03:39:36.275Z,9.60
2017-08-10T03:42:02.624Z,9.53
2017-08-10T03:44:29.017Z,10.60
2017-08-10T03:46:55.390Z,10.20
2017-08-10T03:49:21.748Z,11.23
2017-08-10T03:51:48.095Z,10.00
2017-08-10T03:54:14.455Z,10.03
2017-08-10T03:56:40.835Z,10.50
2017-08-10T03:59:07.169Z,9.70
2017-08-10T04:01:33.573Z,11.03
2017-08-10T04:03:59.933Z,10.20
2017-08-10T04:06:26.588Z,9.87
2017-08-10T04:08:52.988Z,11.47
2017-08-10T04:11:19.334Z,9.83
2017-08-10T04:13:45.729Z,11.20
2017-08-10T04:16:12.096Z,11.57
2017-08-10T04:18:38.801Z,12.00
2017-08-10T04:21:05.143Z,11.27
2017-08-10T04:23:31.611Z,13.77
2017-08-10T04:25:57.948Z,14.23
2017-08-10T04:28:24.306Z,13.23
2017-08-10T04:30:50.680Z,13.63
2017-08-10T04:33:17.098Z,13.30
2017-08-10T04:35:43.440Z,14.07
2017-08-10T04:38:09.774Z,12.90
2017-08-10T04:40:36.113Z,12.40
2017-08-10T04:43:02.471Z,13.80
2017-08-10T04:45:28.863Z,16.37
2017-08-10T04:47:55.225Z,14.70
2017-08-10T04:50:21.615Z,14.90
2017-08-10T04:52:47.975Z,15.67
2017-08-10T04:55:14.346Z,15.03
2017-08-10T04:57:40.691Z,14.77
2017-08-10T05:00:07.036Z,15.93
2017-08-10T05:02:33.393Z,16.83
2017-08-10T05:04:59.726Z,18.67
2017-08-10T05:07:26.112Z,17.20
2017-08-10T05:09:52.477Z,16.60
2017-08-10T05:12:18.805Z,17.30
2017-08-10T05:14:45.180Z,16.97
2017-08-10T05:17:11.591Z,17.70
2017-08-10T05:19:39.977Z,19.20
2017-08-10T05:22:06.358Z,20.10
2017-08-10T05:24:32.743Z,20.30
2017-08-10T05:26:59.096Z,18.37
2017-08-10T05:29:25.471Z,21.03
2017-08-10T05:31:52.774Z,18.60
2017-08-10T05:34:19.158Z,19.23
2017-08-10T05:36:45.539Z,19.57
2017-08-10T05:39:11.919Z,21.27
2017-08-10T05:41:39.508Z,21.87
2017-08-10T05:44:06.132Z,21.17
2017-08-10T05:46:32.485Z,21.10
2017-08-10T05:48:58.837Z,23.63
2017-08-10T05:51:25.273Z,26.80
2017-08-10T05:53:51.629Z,19.90
2017-08-10T05:56:18.008Z,23.27
2017-08-10T05:58:44.383Z,23.70
2017-08-10T06:01:10.720Z,22.27
2017-08-10T06:03:37.077Z,22.00
2017-08-10T06:06:03.434Z,21.40
2017-08-10T06:08:29.780Z,22.20
2017-08-10T06:10:56.146Z,19.77
2017-08-10T06:13:22.573Z,23.00
2017-08-10T06:15:48.913Z,23.27
2017-08-10T06:18:15.285Z,24.03
2017-08-10T06:20:41.640Z,23.63
2017-08-10T06:23:07.989Z,23.57
2017-08-10T06:25:34.410Z,20.70
2017-08-10T06:28:00.780Z,24.13
2017-08-10T06:30:27.149Z,24.70
2017-08-10T06:32:53.511Z,23.60
2017-08-10T06:35:19.859Z,22.60
2017-08-10T06:37:46.255Z,23.40
2017-08-10T06:40:12.631Z,23.10
2017-08-10T06:42:39.009Z,24.30
2017-08-10T06:45:05.392Z,24.33
2017-08-10T06:47:31.865Z,24.83
2017-08-10T06:49:59.678Z,24.37
2017-08-10T06:52:26.036Z,23.53
2017-08-10T06:54:52.398Z,21.03
2017-08-10T06:57:18.766Z,25.70
2017-08-10T06:59:45.133Z,24.40
2017-08-10T07:02:11.521Z,22.07
2017-08-10T07:04:37.910Z,25.70
2017-08-10T07:07:04.307Z,24.27
2017-08-10T07:09:30.671Z,24.97
2017-08-10T07:11:57.060Z,24.27
2017-08-10T07:14:23.431Z,24.77
2017-08-10T07:16:49.828Z,22.90
2017-08-10T07:19:16.207Z,24.30
2017-08-10T07:21:42.568Z,23.70
2017-08-10T07:24:08.959Z,23.33
2017-08-10T07:26:35.310Z,19.00
2017-08-10T07:29:01.673Z,21.37
2017-08-10T07:31:28.053Z,22.70
2017-08-10T07:33:54.394Z,22.17
2017-08-10T07:36:20.786Z,20.50
2017-08-10T07:38:47.141Z,21.17
2017-08-10T07:41:13.500Z,22.03
2017-08-10T07:43:40.194Z,22.70
2017-08-10T07:46:06.565Z,22.07
2017-08-10T07:48:32.931Z,21.50
2017-08-10T07:50:59.314Z,22.60
2017-08-10T07:53:25.675Z,20.50
2017-08-10T07:55:52.106Z,23.23
2017-08-10T07:58:18.456Z,22.60
2017-08-10T08:00:44.811Z,22.93
2017-08-10T08:03:11.169Z,20.60
2017-08-10T08:05:37.562Z,21.27
2017-08-10T08:08:03.894Z,20.33
2017-08-10T08:10:30.258Z,21.27
2017-08-10T08:12:56.638Z,21.60
2017-08-10T08:15:23.019Z,21.20
2017-08-10T08:17:49.367Z,20.20
2017-08-10T08:20:15.702Z,20.73
2017-08-10T08:22:42.062Z,19.60
2017-08-10T08:25:08.449Z,19.10
2017-08-10T08:27:34.821Z,21.10
2017-08-10T08:30:01.146Z,21.60
2017-08-10T08:32:27.525Z,21.07
2017-08-10T08:34:53.914Z,22.37
2017-08-10T08:37:20.319Z,22.47
2017-08-10T08:39:46.709Z,22.40
2017-08-10T08:42:13.070Z,24.10
2017-08-10T08:44:39.439Z,24.00
2017-08-10T08:47:05.772Z,22.00
2017-08-10T08:49:32.145Z,21.80
2017-08-10T08:51:58.492Z,21.73
2017-08-10T08:54:24.854Z,22.27
2017-08-10T08:56:51.237Z,21.43
2017-08-10T08:59:17.608Z,21.33
2017-08-10T09:01:44.036Z,21.63
2017-08-10T09:04:10.424Z,25.27
2017-08-10T09:06:36.797Z,23.37
2017-08-10T09:09:03.276Z,22.60
2017-08-10T09:11:29.666Z,21.00
2017-08-10T09:13:56.019Z,21.60
2017-08-10T09:16:22.392Z,21.97
2017-08-10T09:18:48.730Z,21.10
2017-08-10T09:21:15.089Z,23.10
2017-08-10T09:23:41.454Z,22.37
2017-08-10T09:26:07.832Z,22.13
2017-08-10T09:28:34.231Z,22.30
2017-08-10T09:31:00.596Z,21.87
2017-08-10T09:33:26.965Z,22.50
2017-08-10T09:35:53.304Z,21.53
2017-08-10T09:38:19.678Z,23.83
2017-08-10T09:40:46.057Z,22.97
2017-08-10T09:43:12.422Z,21.60
2017-08-10T09:45:38.809Z,21.43
2017-08-10T09:48:05.267Z,22.70
2017-08-10T09:50:31.674Z,20.30
2017-08-10T09:52:58.132Z,23.37
2017-08-10T09:55:24.565Z,23.17
2017-08-10T09:57:50.941Z,22.00
2017-08-10T10:00:17.335Z,23.13
2017-08-10T10:02:43.980Z,22.63
2017-08-10T10:05:10.332Z,22.83
2017-08-10T10:07:36.682Z,20.47
2017-08-10T10:10:03.118Z,20.40
2017-08-10T10:12:29.487Z,19.40
2017-08-10T10:14:55.874Z,21.40
2017-08-10T10:17:22.246Z,20.20
2017-08-10T10:19:48.637Z,19.27
2017-08-10T10:22:14.991Z,19.60
2017-08-10T10:24:41.358Z,20.60
2017-08-10T10:27:07.712Z,19.97
2017-08-10T10:29:34.076Z,21.03
2017-08-10T10:32:00.469Z,21.70
2017-08-10T10:34:26.817Z,18.73
2017-08-10T10:36:53.189Z,19.00
2017-08-10T10:39:19.563Z,17.97
2017-08-10T10:41:45.953Z,17.90
2017-08-10T10:44:12.329Z,18.23
2017-08-10T10:46:38.732Z,15.27
2017-08-10T10:49:05.141Z,17.47
2017-08-10T10:51:31.494Z,15.67
2017-08-10T10:53:57.887Z,18.47
2017-08-10T10:56:24.311Z,19.80
2017-08-10T10:58:50.703Z,15.57
2017-08-10T11:01:17.105Z,16.97
2017-08-10T11:03:43.497Z,16.73
2017-08-10T11:06:09.875Z,17.70
2017-08-10T11:08:36.237Z,17.93
2017-08-10T11:11:02.621Z,18.03
2017-08-10T11:13:29.015Z,22.03
2017-08-10T11:15:55.401Z,21.73
2017-08-10T11:18:21.761Z,21.60
2017-08-10T11:20:48.130Z,26.40
2017-08-10T11:23:14.529Z,27.90
2017-08-10T11:25:40.881Z,28.77
2017-08-10T11:28:07.260Z,28.90
2017-08-10T11:30:33.695Z,25.70
2017-08-10T11:33:00.063Z,27.67
2017-08-10T11:35:26.426Z,26.47
2017-08-10T11:37:52.809Z,25.43
2017-08-10T11:40:19.202Z,25.23
2017-08-10T11:42:45.600Z,25.53
2017-08-10T11:45:11.956Z,25.73
2017-08-10T11:47:38.337Z,25.90
2017-08-10T11:50:04.720Z,22.80
2017-08-10T11:52:31.090Z,23.20
2017-08-10T11:54:57.480Z,28.37
2017-08-10T11:57:23.853Z,28.77
2017-08-10T11:59:50.216Z,28.90
2017-08-10T12:02:16.620Z,27.83
2017-08-10T12:04:45.826Z,24.57
2017-08-10T12:07:12.202Z,23.77
2017-08-10T12:09:38.593Z,26.90
2017-08-10T12:12:04.962Z,27.13
2017-08-10T12:14:31.354Z,28.90
2017-08-10T12:16:57.748Z,28.90
2017-08-10T12:19:24.143Z,29.17
2017-08-10T12:21:50.524Z,29.87
2017-08-10T12:24:16.902Z,25.77
2017-08-10T12:26:43.280Z,28.00
2017-08-10T12:29:09.659Z,28.97
2017-08-10T12:31:36.041Z,28.13
2017-08-10T12:34:02.455Z,30.60
2017-08-10T12:36:28.826Z,29.87
2017-08-10T12:38:55.218Z,32.40
2017-08-10T12:41:21.584Z,31.60
2017-08-10T12:43:47.961Z,28.83
2017-08-10T12:46:14.332Z,36.10
2017-08-10T12:48:40.696Z,36.30
2017-08-10T12:51:07.088Z,33.87
2017-08-10T12:53:33.456Z,29.67
2017-08-10T12:55:59.835Z,31.50
2017-08-10T12:58:26.222Z,32.40
2017-08-10T13:00:52.580Z,35.47
2017-08-10T13:03:18.964Z,33.43
2017-08-10T13:05:45.382Z,32.70
2017-08-10T13:08:11.749Z,31.47
2017-08-10T13:10:38.130Z,31.03
2017-08-10T13:13:04.474Z,37.77
2017-08-10T13:15:30.838Z,33.10
2017-08-10T13:17:57.190Z,34.40
2017-08-10T13:20:23.593Z,29.67
2017-08-10T13:22:49.976Z,32.90
2017-08-10T13:25:16.369Z,34.60
2017-08-10T13:27:42.748Z,28.97
2017-08-10T13:30:09.207Z,27.53
2017-08-10T13:32:35.601Z,27.70
2017-08-10T13:35:01.962Z,27.20
2017-08-10T13:37:28.369Z,31.07
2017-08-10T13:39:54.701Z,29.53
2017-08-10T13:42:21.104Z,30.97
2017-08-10T13:44:47.491Z,27.33
2017-08-10T13:47:13.860Z,28.83
2017-08-10T13:49:40.267Z,27.40
2017-08-10T13:52:06.671Z,23.97
2017-08-10T13:54:33.042Z,25.90
2017-08-10T13:56:59.413Z,24.20
2017-08-10T13:59:25.799Z,26.90
2017-08-10T14:01:52.187Z,25.80
2017-08-10T14:04:18.581Z,25.37
2017-08-10T14:06:44.993Z,23.00
2017-08-10T14:09:11.375Z,22.77
2017-08-10T14:11:37.764Z,22.63
2017-08-10T14:14:04.122Z,22.10
2017-08-10T14:16:30.524Z,21.90
2017-08-10T14:18:56.923Z,20.47
2017-08-10T14:21:23.318Z,20.93
2017-08-10T14:23:49.681Z,20.40
2017-08-10T14:26:16.058Z,20.10
2017-08-10T14:28:42.458Z,19.47
2017-08-10T14:31:08.807Z,15.50
2017-08-10T14:33:35.190Z,18.00
2017-08-10T14:36:01.576Z,21.60
2017-08-10T14:38:27.948Z,22.00
2017-08-10T14:40:54.381Z,19.13
2017-08-10T14:43:20.777Z,18.40
2017-08-10T14:45:47.138Z,18.10
2017-08-10T14:48:13.505Z,18.23
2017-08-10T14:50:39.911Z,18.67
2017-08-10T14:53:06.254Z,19.60
2017-08-10T14:55:32.683Z,21.20
2017-08-10T14:57:59.081Z,20.40
2017-08-10T15:00:25.488Z,20.17
2017-08-10T15:02:51.867Z,23.70
2017-08-10T15:05:18.292Z,23.43
2017-08-10T15:07:44.666Z,25.13
2017-08-10T15:10:11.028Z,22.13
2017-08-10T15:12:37.405Z,24.37
2017-08-10T15:15:03.793Z,25.30
2017-08-10T15:17:30.131Z,27.33
2017-08-10T15:19:56.469Z,24.73
2017-08-10T15:22:22.896Z,23.40
2017-08-10T15:24:49.272Z,26.37
2017-08-10T15:27:15.802Z,22.90
2017-08-10T15:29:42.163Z,23.23
2017-08-10T15:32:08.526Z,24.10
2017-08-10T15:34:34.887Z,23.60
2017-08-10T15:37:01.235Z,27.77
2017-08-10T15:39:27.636Z,26.40
2017-08-10T15:41:54.052Z,29.27
2017-08-10T15:44:20.429Z,28.60
2017-08-10T15:46:46.825Z,26.80
2017-08-10T15:49:13.201Z,31.30
2017-08-10T15:51:39.603Z,32.67
2017-08-10T15:54:05.981Z,34.97
2017-08-10T15:56:32.338Z,32.70
2017-08-10T15:58:58.698Z,36.10
2017-08-10T16:01:25.072Z,37.77
2017-08-10T16:03:51.433Z,38.03
2017-08-10T16:06:17.782Z,35.37
2017-08-10T16:08:44.164Z,38.93
2017-08-10T16:11:10.537Z,35.47
2017-08-10T16:13:36.919Z,39.47
2017-08-10T16:16:03.287Z,35.33
2017-08-10T16:18:29.634Z,34.20
2017-08-10T16:20:56.023Z,33.00
2017-08-10T16:23:22.374Z,34.40
2017-08-10T16:25:48.783Z,29.57
2017-08-10T16:28:15.183Z,31.97
2017-08-10T16:30:41.544Z,33.37
2017-08-10T16:33:07.939Z,31.67
2017-08-10T16:35:34.287Z,34.20
2017-08-10T16:38:00.669Z,33.90
2017-08-10T16:40:27.032Z,33.03
2017-08-10T16:42:53.423Z,34.57
2017-08-10T16:45:19.774Z,37.97
2017-08-10T16:47:46.152Z,40.27
2017-08-10T16:50:12.507Z,38.10
2017-08-10T16:52:38.887Z,39.03
2017-08-10T16:55:05.237Z,38.97
2017-08-10T16:57:31.597Z,43.47
2017-08-10T16:59:57.982Z,42.13
2017-08-10T17:02:24.394Z,44.83
2017-08-10T17:04:50.774Z,43.87
2017-08-10T17:07:17.134Z,42.60
2017-08-10T17:09:43.524Z,43.43
2017-08-10T17:12:09.904Z,41.83
2017-08-10T17:14:36.274Z,40.13
2017-08-10T17:17:02.652Z,40.27
2017-08-10T17:19:29.060Z,34.57
2017-08-10T17:21:55.420Z,40.13
2017-08-10T17:24:21.841Z,32.30
2017-08-10T17:26:48.220Z,38.30
2017-08-10T17:29:14.592Z,39.77
2017-08-10T17:31:40.965Z,41.93
2017-08-10T17:34:07.332Z,36.80
2017-08-10T17:36:33.712Z,41.23
2017-08-10T17:39:00.113Z,40.80
2017-08-10T17:41:26.470Z,41.10
2017-08-10T17:43:52.840Z,36.40
2017-08-10T17:46:19.209Z,42.10
2017-08-10T17:48:45.560Z,39.90
2017-08-10T17:51:11.944Z,42.60
2017-08-10T17:53:38.307Z,41.50
2017-08-10T17:56:04.667Z,40.87
2017-08-10T17:58:31.049Z,40.60
2017-08-10T18:01:00.142Z,39.07
2017-08-10T18:03:23.881Z,43.63
2017-08-10T18:05:50.276Z,43.87
2017-08-10T18:08:16.616Z,45.70
2017-08-10T18:10:43.025Z,39.00
2017-08-10T18:13:09.469Z,42.30
2017-08-10T18:15:35.837Z,45.90
2017-08-10T18:18:02.205Z,46.10
2017-08-10T18:20:28.583Z,45.37
2017-08-10T18:22:54.941Z,46.57
2017-08-10T18:25:21.375Z,44.73
2017-08-10T18:27:47.791Z,48.47
2017-08-10T18:30:14.170Z,44.10
2017-08-10T18:32:40.593Z,47.83
2017-08-10T18:35:06.967Z,47.77
2017-08-10T18:37:33.356Z,48.10
2017-08-10T18:39:59.764Z,50.40
2017-08-10T18:42:26.187Z,46.67
2017-08-10T18:44:52.548Z,49.97
2017-08-10T18:47:18.917Z,53.83
2017-08-10T18:49:45.276Z,52.27
2017-08-10T18:52:11.637Z,50.03
2017-08-10T18:54:38.017Z,51.20
2017-08-10T18:57:04.372Z,52.20
2017-08-10T18:59:30.743Z,56.10
2017-08-10T19:01:57.137Z,52.77
2017-08-10T19:04:23.578Z,49.70
2017-08-10T19:06:49.948Z,48.90
2017-08-10T19:09:16.582Z,45.17
2017-08-10T19:11:42.962Z,47.87
2017-08-10T19:14:09.368Z,48.40
2017-08-10T19:16:35.740Z,49.50
2017-08-10T19:19:02.081Z,46.77
2017-08-10T19:21:28.474Z,49.10
2017-08-10T19:23:55.171Z,46.93
2017-08-10T19:26:21.545Z,49.10
2017-08-10T19:28:47.929Z,47.57
2017-08-10T19:31:14.322Z,46.10
2017-08-10T19:33:40.708Z,48.23
2017-08-10T19:36:07.155Z,52.83
2017-08-10T19:38:33.529Z,58.10
2017-08-10T19:40:59.879Z,47.43
2017-08-10T19:43:26.267Z,51.20
2017-08-10T19:45:52.900Z,52.27
2017-08-10T19:48:19.489Z,53.90
2017-08-10T19:50:45.878Z,57.97
2017-08-10T19:53:12.312Z,57.47
2017-08-10T19:55:38.685Z,54.10
2017-08-10T19:58:05.051Z,54.30
2017-08-10T20:00:31.493Z,56.17
2017-08-10T20:02:57.870Z,54.97
2017-08-10T20:05:24.280Z,57.07
2017-08-10T20:07:50.659Z,61.10
2017-08-10T20:10:17.072Z,60.77
2017-08-10T20:12:43.480Z,60.70
2017-08-10T20:15:09.827Z,58.03
2017-08-10T20:17:36.193Z,51.63
2017-08-10T20:20:02.631Z,55.20
2017-08-10T20:22:29.028Z,57.57
2017-08-10T20:24:55.436Z,55.57
2017-08-10T20:27:21.846Z,53.80
2017-08-10T20:29:48.203Z,55.77
2017-08-10T20:32:14.572Z,54.60
2017-08-10T20:34:40.950Z,57.47
2017-08-10T20:37:07.354Z,55.80
2017-08-10T20:39:33.711Z,52.37
2017-08-10T20:42:00.098Z,51.37
2017-08-10T20:44:26.462Z,49.80
2017-08-10T20:46:52.837Z,45.73
2017-08-10T20:49:19.249Z,49.20
2017-08-10T20:51:45.587Z,45.43
2017-08-10T20:54:12.361Z,48.77
2017-08-10T20:56:38.736Z,50.50
2017-08-10T20:59:05.118Z,49.97
2017-08-10T21:01:31.486Z,44.50
2017-08-10T21:03:57.864Z,49.13
2017-08-10T21:06:24.259Z,50.03
2017-08-10T21:08:50.622Z,43.40
2017-08-10T21:11:16.994Z,45.60
2017-08-10T21:13:43.334Z,44.60
2017-08-10T21:16:09.736Z,50.33
2017-08-10T21:18:36.117Z,50.77
2017-08-10T21:21:02.508Z,50.20
2017-08-10T21:23:28.882Z,52.57
2017-08-10T21:25:55.251Z,53.47
2017-08-10T21:28:21.595Z,53.40
2017-08-10T21:30:47.974Z,56.40
2017-08-10T21:33:14.367Z,56.50
2017-08-10T21:35:40.740Z,59.70
2017-08-10T21:38:07.099Z,60.90
2017-08-10T21:40:33.463Z,56.37
2017-08-10T21:42:59.872Z,59.10
2017-08-10T21:45:26.240Z,57.30
2017-08-10T21:47:52.604Z,56.57
2017-08-10T21:50:18.986Z,59.07
2017-08-10T21:52:45.339Z,59.90
2017-08-10T21:55:11.684Z,58.03
2017-08-10T21:57:38.057Z,63.30
2017-08-10T22:00:04.411Z,64.57
2017-08-10T22:02:30.739Z,68.97
2017-08-10T22:04:57.116Z,69.50
2017-08-10T22:07:23.449Z,66.03
2017-08-10T22:09:49.847Z,68.23
2017-08-10T22:12:16.192Z,64.43
2017-08-10T22:14:42.865Z,70.77
2017-08-10T22:17:09.254Z,71.13
2017-08-10T22:19:35.630Z,74.20
2017-08-10T22:22:01.992Z,70.40
2017-08-10T22:24:28.404Z,69.53
2017-08-10T22:26:54.792Z,71.53
2017-08-10T22:29:21.179Z,70.80
2017-08-10T22:31:47.559Z,77.80
2017-08-10T22:34:13.941Z,76.63
2017-08-10T22:36:40.303Z,76.63
2017-08-10T22:39:06.725Z,74.23
2017-08-10T22:41:33.137Z,75.83
2017-08-10T22:43:59.535Z,72.67
2017-08-10T22:46:25.915Z,68.23
2017-08-10T22:48:52.285Z,71.57
2017-08-10T22:51:18.652Z,72.87
2017-08-10T22:53:45.042Z,68.83
2017-08-10T22:56:11.443Z,72.97
2017-08-10T22:58:37.817Z,66.47
2017-08-10T23:01:04.241Z,67.13
2017-08-10T23:03:30.667Z,69.57
2017-08-10T23:05:57.040Z,70.47
2017-08-10T23:08:23.487Z,75.00
2017-08-10T23:10:49.883Z,74.13
2017-08-10T23:13:16.278Z,75.57
2017-08-10T23:15:42.631Z,73.57
2017-08-10T23:18:09.051Z,77.53
2017-08-10T23:20:35.439Z,72.17
2017-08-10T23:23:01.804Z,63.77
2017-08-10T23:25:28.175Z,68.10
2017-08-10T23:27:54.571Z,65.10
2017-08-10T23:30:21.035Z,67.93
2017-08-10T23:32:47.465Z,73.90
2017-08-10T23:35:13.864Z,75.37
2017-08-10T23:37:40.230Z,73.00
2017-08-10T23:40:06.616Z,60.20
2017-08-10T23:42:33.020Z,75.87
2017-08-10T23:44:59.375Z,63.90
2017-08-10T23:47:25.768Z,68.97
2017-08-10T23:49:52.232Z,65.27
2017-08-10T23:52:18.598Z,61.40
2017-08-10T23:54:44.980Z,64.83
2017-08-10T23:57:11.359Z,63.93
2017-08-10T23:59:37.715Z,53.23
